sensor_id;sensor_type;location;lat;lon;timestamp;temperature;humidity
14934;DHT22;7560;51.364;12.384;2022-09-03T00:02:23;16.50;99.90
14934;DHT22;7560;51.364;12.384;2022-09-03T00:12:53;16.40;99.90
14934;DHT22;7560;51.364;12.384;2022-09-03T00:18:13;16.30;99.90
14934;DHT22;7560;51.364;12.384;2022-09-03T00:23:22;16.20;99.90
14934;DHT22;7560;51.364;12.384;2022-09-03T00:28:33;16.00;99.90
14934;DHT22;7560;51.364;12.384;2022-09-03T00:33:39;16.00;99.90
14934;DHT22;7560;51.364;12.384;2022-09-03T00:38:41;15.90;99.90
14934;DHT22;7560;51.364;12.384;2022-09-03T00:59:43;15.90;99.90
14934;DHT22;7560;51.364;12.384;2022-09-03T01:05:23;15.90;99.90
14934;DHT22;7560;51.364;12.384;2022-09-03T01:10:24;15.90;99.90
14934;DHT22;7560;51.364;12.384;2022-09-03T01:20:48;15.80;99.90
14934;DHT22;7560;51.364;12.384;2022-09-03T01:25:54;15.80;99.90
14934;DHT22;7560;51.364;12.384;2022-09-03T02:03:16;15.60;99.90
14934;DHT22;7560;51.364;12.384;2022-09-03T02:08:18;15.60;99.90
14934;DHT22;7560;51.364;12.384;2022-09-03T02:13:30;15.60;99.90
14934;DHT22;7560;51.364;12.384;2022-09-03T02:18:42;15.50;99.90
14934;DHT22;7560;51.364;12.384;2022-09-03T02:23:47;15.50;99.90
14934;DHT22;7560;51.364;12.384;2022-09-03T02:28:50;15.40;99.90
14934;DHT22;7560;51.364;12.384;2022-09-03T02:33:55;15.40;99.90
14934;DHT22;7560;51.364;12.384;2022-09-03T02:38:57;15.30;99.90
14934;DHT22;7560;51.364;12.384;2022-09-03T02:44:23;15.20;99.90
14934;DHT22;7560;51.364;12.384;2022-09-03T02:49:29;15.10;99.90
14934;DHT22;7560;51.364;12.384;2022-09-03T02:54:32;15.00;99.90
14934;DHT22;7560;51.364;12.384;2022-09-03T02:59:36;14.90;99.90
14934;DHT22;7560;51.364;12.384;2022-09-03T03:04:40;14.80;99.90
14934;DHT22;7560;51.364;12.384;2022-09-03T03:09:41;14.70;99.90
14934;DHT22;7560;51.364;12.384;2022-09-03T03:14:43;14.60;99.90
14934;DHT22;7560;51.364;12.384;2022-09-03T03:19:45;14.60;99.90
14934;DHT22;7560;51.364;12.384;2022-09-03T03:24:47;14.60;99.90
14934;DHT22;7560;51.364;12.384;2022-09-03T03:29:50;14.50;99.90
14934;DHT22;7560;51.364;12.384;2022-09-03T03:34:52;14.50;99.90
14934;DHT22;7560;51.364;12.384;2022-09-03T03:39:54;14.50;99.90
14934;DHT22;7560;51.364;12.384;2022-09-03T03:44:56;14.50;99.90
14934;DHT22;7560;51.364;12.384;2022-09-03T03:49:58;14.50;99.90
14934;DHT22;7560;51.364;12.384;2022-09-03T03:55:00;14.60;99.90
14934;DHT22;7560;51.364;12.384;2022-09-03T04:00:03;14.50;99.90
14934;DHT22;7560;51.364;12.384;2022-09-03T04:05:05;14.50;99.90
14934;DHT22;7560;51.364;12.384;2022-09-03T04:10:08;14.40;99.90
14934;DHT22;7560;51.364;12.384;2022-09-03T04:15:10;14.40;99.90
14934;DHT22;7560;51.364;12.384;2022-09-03T04:20:12;14.30;99.90
14934;DHT22;7560;51.364;12.384;2022-09-03T04:25:13;14.30;99.90
14934;DHT22;7560;51.364;12.384;2022-09-03T04:30:15;14.20;99.90
14934;DHT22;7560;51.364;12.384;2022-09-03T04:35:18;14.00;99.90
14934;DHT22;7560;51.364;12.384;2022-09-03T04:40:21;14.00;99.90
14934;DHT22;7560;51.364;12.384;2022-09-03T04:45:23;13.90;99.90
14934;DHT22;7560;51.364;12.384;2022-09-03T04:50:25;14.00;99.90
14934;DHT22;7560;51.364;12.384;2022-09-03T04:55:33;14.10;99.90
14934;DHT22;7560;51.364;12.384;2022-09-03T05:00:35;14.10;99.90
14934;DHT22;7560;51.364;12.384;2022-09-03T05:05:37;14.10;99.90
14934;DHT22;7560;51.364;12.384;2022-09-03T05:10:39;14.10;99.90
14934;DHT22;7560;51.364;12.384;2022-09-03T05:15:41;14.20;99.90
14934;DHT22;7560;51.364;12.384;2022-09-03T05:20:44;14.30;99.90
14934;DHT22;7560;51.364;12.384;2022-09-03T05:25:54;14.40;99.90
14934;DHT22;7560;51.364;12.384;2022-09-03T05:31:09;14.50;99.90
14934;DHT22;7560;51.364;12.384;2022-09-03T05:36:16;14.60;99.90
14934;DHT22;7560;51.364;12.384;2022-09-03T05:41:19;14.50;99.90
14934;DHT22;7560;51.364;12.384;2022-09-03T05:46:24;14.70;99.90
14934;DHT22;7560;51.364;12.384;2022-09-03T05:51:34;14.80;99.90
14934;DHT22;7560;51.364;12.384;2022-09-03T05:56:37;14.90;99.90
14934;DHT22;7560;51.364;12.384;2022-09-03T06:01:42;15.10;99.90
14934;DHT22;7560;51.364;12.384;2022-09-03T06:06:52;15.10;99.90
14934;DHT22;7560;51.364;12.384;2022-09-03T06:11:54;15.10;99.90
14934;DHT22;7560;51.364;12.384;2022-09-03T06:16:57;15.10;99.90
14934;DHT22;7560;51.364;12.384;2022-09-03T06:21:59;15.10;99.90
14934;DHT22;7560;51.364;12.384;2022-09-03T06:27:01;15.00;99.90
14934;DHT22;7560;51.364;12.384;2022-09-03T06:32:03;15.10;99.90
14934;DHT22;7560;51.364;12.384;2022-09-03T06:37:05;15.10;99.90
14934;DHT22;7560;51.364;12.384;2022-09-03T06:42:07;15.10;99.90
14934;DHT22;7560;51.364;12.384;2022-09-03T06:47:09;15.20;99.90
14934;DHT22;7560;51.364;12.384;2022-09-03T06:52:11;15.30;99.90
14934;DHT22;7560;51.364;12.384;2022-09-03T06:57:13;15.30;99.90
14934;DHT22;7560;51.364;12.384;2022-09-03T07:02:14;15.40;99.90
14934;DHT22;7560;51.364;12.384;2022-09-03T07:07:17;15.50;99.90
14934;DHT22;7560;51.364;12.384;2022-09-03T07:12:19;15.70;99.90
14934;DHT22;7560;51.364;12.384;2022-09-03T07:17:20;15.70;99.90
14934;DHT22;7560;51.364;12.384;2022-09-03T07:22:22;15.90;99.90
14934;DHT22;7560;51.364;12.384;2022-09-03T07:27:33;16.00;99.90
14934;DHT22;7560;51.364;12.384;2022-09-03T07:32:35;16.10;99.90
14934;DHT22;7560;51.364;12.384;2022-09-03T07:37:42;16.40;99.90
14934;DHT22;7560;51.364;12.384;2022-09-03T07:42:43;16.40;99.90
14934;DHT22;7560;51.364;12.384;2022-09-03T07:47:46;16.50;99.90
14934;DHT22;7560;51.364;12.384;2022-09-03T07:52:55;16.60;99.90
14934;DHT22;7560;51.364;12.384;2022-09-03T07:57:58;16.80;99.90
14934;DHT22;7560;51.364;12.384;2022-09-03T08:03:00;16.90;99.90
14934;DHT22;7560;51.364;12.384;2022-09-03T08:08:08;17.00;99.90
14934;DHT22;7560;51.364;12.384;2022-09-03T08:13:15;17.20;99.90
14934;DHT22;7560;51.364;12.384;2022-09-03T08:18:17;17.40;99.90
14934;DHT22;7560;51.364;12.384;2022-09-03T08:23:19;17.60;99.90
14934;DHT22;7560;51.364;12.384;2022-09-03T08:28:21;17.70;99.90
14934;DHT22;7560;51.364;12.384;2022-09-03T08:33:23;17.70;99.90
14934;DHT22;7560;51.364;12.384;2022-09-03T08:38:38;17.80;99.90
14934;DHT22;7560;51.364;12.384;2022-09-03T08:54:49;18.20;99.90
14934;DHT22;7560;51.364;12.384;2022-09-03T08:59:53;18.20;99.90
14934;DHT22;7560;51.364;12.384;2022-09-03T09:20:53;18.80;99.90
14934;DHT22;7560;51.364;12.384;2022-09-03T09:25:58;18.80;99.90
14934;DHT22;7560;51.364;12.384;2022-09-03T09:31:04;18.90;99.90
14934;DHT22;7560;51.364;12.384;2022-09-03T09:36:11;18.90;99.90
14934;DHT22;7560;51.364;12.384;2022-09-03T09:41:18;19.10;99.90
14934;DHT22;7560;51.364;12.384;2022-09-03T09:46:23;19.10;99.90
14934;DHT22;7560;51.364;12.384;2022-09-03T09:51:27;19.30;99.90
14934;DHT22;7560;51.364;12.384;2022-09-03T09:56:32;19.30;99.90
14934;DHT22;7560;51.364;12.384;2022-09-03T10:01:39;19.30;99.90
14934;DHT22;7560;51.364;12.384;2022-09-03T10:06:42;19.50;99.90
14934;DHT22;7560;51.364;12.384;2022-09-03T10:22:45;19.80;99.90
14934;DHT22;7560;51.364;12.384;2022-09-03T10:27:58;19.80;99.90
14934;DHT22;7560;51.364;12.384;2022-09-03T10:33:57;19.80;99.90
14934;DHT22;7560;51.364;12.384;2022-09-03T10:38:38;20.00;99.90
14934;DHT22;7560;51.364;12.384;2022-09-03T11:05:14;20.30;99.90
14934;DHT22;7560;51.364;12.384;2022-09-03T11:10:25;20.40;99.90
14934;DHT22;7560;51.364;12.384;2022-09-03T11:20:33;20.80;99.90
14934;DHT22;7560;51.364;12.384;2022-09-03T11:25:57;20.80;99.90
14934;DHT22;7560;51.364;12.384;2022-09-03T11:36:35;21.20;99.90
14934;DHT22;7560;51.364;12.384;2022-09-03T11:41:37;21.10;99.90
14934;DHT22;7560;51.364;12.384;2022-09-03T11:46:40;21.30;99.90
14934;DHT22;7560;51.364;12.384;2022-09-03T11:51:42;21.40;99.90
14934;DHT22;7560;51.364;12.384;2022-09-03T11:56:44;21.50;99.90
14934;DHT22;7560;51.364;12.384;2022-09-03T12:01:59;21.50;99.90
14934;DHT22;7560;51.364;12.384;2022-09-03T12:17:57;21.40;99.90
14934;DHT22;7560;51.364;12.384;2022-09-03T12:28:48;21.80;99.90
14934;DHT22;7560;51.364;12.384;2022-09-03T12:38:55;21.90;99.40
14934;DHT22;7560;51.364;12.384;2022-09-03T12:44:14;21.80;99.40
14934;DHT22;7560;51.364;12.384;2022-09-03T12:49:15;22.10;99.90
14934;DHT22;7560;51.364;12.384;2022-09-03T12:54:37;22.00;99.50
14934;DHT22;7560;51.364;12.384;2022-09-03T12:59:39;22.00;99.60
14934;DHT22;7560;51.364;12.384;2022-09-03T13:04:42;22.00;99.90
14934;DHT22;7560;51.364;12.384;2022-09-03T13:09:45;22.40;99.90
14934;DHT22;7560;51.364;12.384;2022-09-03T13:14:48;22.70;99.10
14934;DHT22;7560;51.364;12.384;2022-09-03T13:36:39;23.40;98.00
14934;DHT22;7560;51.364;12.384;2022-09-03T13:41:55;23.40;97.80
14934;DHT22;7560;51.364;12.384;2022-09-03T13:47:10;23.60;98.00
14934;DHT22;7560;51.364;12.384;2022-09-03T13:52:33;23.80;97.60
14934;DHT22;7560;51.364;12.384;2022-09-03T13:57:49;23.80;97.50
14934;DHT22;7560;51.364;12.384;2022-09-03T14:03:11;23.70;97.40
14934;DHT22;7560;51.364;12.384;2022-09-03T14:08:27;23.70;97.40
14934;DHT22;7560;51.364;12.384;2022-09-03T14:19:05;24.10;97.00
14934;DHT22;7560;51.364;12.384;2022-09-03T14:24:30;24.30;96.70
14934;DHT22;7560;51.364;12.384;2022-09-03T14:29:37;24.50;96.40
14934;DHT22;7560;51.364;12.384;2022-09-03T14:35:15;24.70;96.20
14934;DHT22;7560;51.364;12.384;2022-09-03T14:40:29;25.30;96.40
14934;DHT22;7560;51.364;12.384;2022-09-03T14:51:17;25.30;95.60
14934;DHT22;7560;51.364;12.384;2022-09-03T15:02:18;25.40;95.40
14934;DHT22;7560;51.364;12.384;2022-09-03T15:07:51;24.80;95.50
14934;DHT22;7560;51.364;12.384;2022-09-03T15:13:21;24.20;95.70
14934;DHT22;7560;51.364;12.384;2022-09-03T15:34:51;24.60;95.70
14934;DHT22;7560;51.364;12.384;2022-09-03T15:45:35;25.20;95.40
14934;DHT22;7560;51.364;12.384;2022-09-03T15:50:51;25.60;95.30
14934;DHT22;7560;51.364;12.384;2022-09-03T15:56:18;25.60;95.20
14934;DHT22;7560;51.364;12.384;2022-09-03T16:01:32;25.10;95.20
14934;DHT22;7560;51.364;12.384;2022-09-03T16:12:56;25.00;95.40
14934;DHT22;7560;51.364;12.384;2022-09-03T16:18:26;25.00;95.20
14934;DHT22;7560;51.364;12.384;2022-09-03T16:23:49;24.90;95.70
14934;DHT22;7560;51.364;12.384;2022-09-03T16:28:58;24.70;95.40
14934;DHT22;7560;51.364;12.384;2022-09-03T16:50:03;23.90;96.00
14934;DHT22;7560;51.364;12.384;2022-09-03T17:00:27;23.70;96.20
14934;DHT22;7560;51.364;12.384;2022-09-03T17:38:11;22.70;98.90
14934;DHT22;7560;51.364;12.384;2022-09-03T17:43:27;22.40;99.40
14934;DHT22;7560;51.364;12.384;2022-09-03T17:48:47;22.20;99.80
14934;DHT22;7560;51.364;12.384;2022-09-03T17:53:54;22.00;99.90
14934;DHT22;7560;51.364;12.384;2022-09-03T18:04:55;21.60;99.90
14934;DHT22;7560;51.364;12.384;2022-09-03T18:10:07;21.50;99.90
14934;DHT22;7560;51.364;12.384;2022-09-03T18:15:20;21.30;99.90
14934;DHT22;7560;51.364;12.384;2022-09-03T18:20:27;21.10;99.90
14934;DHT22;7560;51.364;12.384;2022-09-03T18:26:15;21.00;99.90
14934;DHT22;7560;51.364;12.384;2022-09-03T18:31:40;20.80;99.90
14934;DHT22;7560;51.364;12.384;2022-09-03T18:37:01;20.70;99.90
14934;DHT22;7560;51.364;12.384;2022-09-03T18:48:24;20.50;99.90
14934;DHT22;7560;51.364;12.384;2022-09-03T18:53:57;20.40;99.90
14934;DHT22;7560;51.364;12.384;2022-09-03T18:59:41;20.30;99.90
14934;DHT22;7560;51.364;12.384;2022-09-03T19:05:18;20.10;99.90
14934;DHT22;7560;51.364;12.384;2022-09-03T19:10:48;20.10;99.90
14934;DHT22;7560;51.364;12.384;2022-09-03T19:16:18;20.00;99.90
14934;DHT22;7560;51.364;12.384;2022-09-03T19:21:42;19.90;99.90
14934;DHT22;7560;51.364;12.384;2022-09-03T19:44:53;19.60;99.90
14934;DHT22;7560;51.364;12.384;2022-09-03T19:50:24;19.50;99.90
14934;DHT22;7560;51.364;12.384;2022-09-03T19:55:59;19.40;99.90
14934;DHT22;7560;51.364;12.384;2022-09-03T20:01:23;19.30;99.90
14934;DHT22;7560;51.364;12.384;2022-09-03T20:06:44;19.30;99.90
14934;DHT22;7560;51.364;12.384;2022-09-03T20:12:06;19.20;99.90
14934;DHT22;7560;51.364;12.384;2022-09-03T20:17:27;19.10;99.90
14934;DHT22;7560;51.364;12.384;2022-09-03T20:54:51;18.80;99.90
14934;DHT22;7560;51.364;12.384;2022-09-03T21:00:08;18.80;99.90
14934;DHT22;7560;51.364;12.384;2022-09-03T21:10:38;18.50;99.90
14934;DHT22;7560;51.364;12.384;2022-09-03T21:15:57;18.50;99.90
14934;DHT22;7560;51.364;12.384;2022-09-03T21:21:33;18.50;99.90
14934;DHT22;7560;51.364;12.384;2022-09-03T21:26:42;18.30;99.90
14934;DHT22;7560;51.364;12.384;2022-09-03T21:37:11;18.20;99.90
14934;DHT22;7560;51.364;12.384;2022-09-03T21:42:37;18.10;99.90
14934;DHT22;7560;51.364;12.384;2022-09-03T21:48:05;18.10;99.90
14934;DHT22;7560;51.364;12.384;2022-09-03T21:53:29;18.00;99.90
14934;DHT22;7560;51.364;12.384;2022-09-03T22:04:10;18.00;99.90
14934;DHT22;7560;51.364;12.384;2022-09-03T22:09:24;17.90;99.90
14934;DHT22;7560;51.364;12.384;2022-09-03T22:14:37;17.90;99.90
14934;DHT22;7560;51.364;12.384;2022-09-03T22:19:43;17.80;99.90
14934;DHT22;7560;51.364;12.384;2022-09-03T22:24:57;17.80;99.90
14934;DHT22;7560;51.364;12.384;2022-09-03T22:30:07;17.90;99.90
14934;DHT22;7560;51.364;12.384;2022-09-03T22:35:30;18.00;99.90
14934;DHT22;7560;51.364;12.384;2022-09-03T22:57:21;18.10;99.90
14934;DHT22;7560;51.364;12.384;2022-09-03T23:02:29;18.10;99.90
14934;DHT22;7560;51.364;12.384;2022-09-03T23:07:53;18.10;99.90
14934;DHT22;7560;51.364;12.384;2022-09-03T23:13:13;18.10;99.90
14934;DHT22;7560;51.364;12.384;2022-09-03T23:18:21;18.00;99.90
14934;DHT22;7560;51.364;12.384;2022-09-03T23:23:34;18.00;99.90
14934;DHT22;7560;51.364;12.384;2022-09-03T23:28:37;18.00;99.90
14934;DHT22;7560;51.364;12.384;2022-09-03T23:33:41;18.00;99.90
14934;DHT22;7560;51.364;12.384;2022-09-03T23:38:56;18.00;99.90
14934;DHT22;7560;51.364;12.384;2022-09-03T23:44:25;17.90;99.90
14934;DHT22;7560;51.364;12.384;2022-09-03T23:54:57;17.90;99.90
